createdAt,value
2023-02-06T00:00:14.298Z,89.90
2023-02-06T00:02:12.633Z,89.74
2023-02-06T00:04:10.879Z,89.66
2023-02-06T00:06:09.568Z,89.69
2023-02-06T00:08:07.940Z,88.86
2023-02-06T00:10:08.210Z,89.57
2023-02-06T00:12:06.890Z,89.73
2023-02-06T00:14:05.476Z,89.57
2023-02-06T00:16:03.965Z,88.93
2023-02-06T00:18:02.305Z,88.91
2023-02-06T00:20:00.385Z,89.09
2023-02-06T00:21:58.625Z,89.29
2023-02-06T00:23:58.864Z,89.60
2023-02-06T00:25:58.503Z,89.70
2023-02-06T00:27:56.694Z,90.36
2023-02-06T00:29:55.983Z,90.51
2023-02-06T00:31:54.166Z,90.90
2023-02-06T00:33:52.409Z,91.23
2023-02-06T00:35:50.731Z,91.05
2023-02-06T00:37:49.137Z,90.43
2023-02-06T00:39:47.395Z,90.58
2023-02-06T00:41:47.139Z,90.08
2023-02-06T00:43:45.353Z,90.20
2023-02-06T00:45:43.632Z,90.38
2023-02-06T00:47:41.890Z,89.74
2023-02-06T00:49:40.707Z,90.00
2023-02-06T00:51:39.628Z,89.73
2023-02-06T00:53:37.850Z,89.78
2023-02-06T00:55:36.305Z,89.68
2023-02-06T00:57:36.134Z,89.61
2023-02-06T00:59:34.352Z,89.81
2023-02-06T01:01:32.479Z,89.67
2023-02-06T01:03:30.775Z,89.26
2023-02-06T01:05:29.291Z,88.86
2023-02-06T01:07:27.597Z,88.80
2023-02-06T01:09:25.812Z,88.83
2023-02-06T01:11:26.252Z,88.46
2023-02-06T01:13:25.986Z,88.75
2023-02-06T01:15:24.191Z,87.99
2023-02-06T01:17:22.471Z,87.83
2023-02-06T01:19:20.678Z,87.45
2023-02-06T01:21:21.352Z,86.50
2023-02-06T01:23:19.615Z,86.48
2023-02-06T01:25:18.158Z,86.97
2023-02-06T01:27:16.283Z,87.05
2023-02-06T01:29:15.792Z,87.19
2023-02-06T01:31:17.304Z,86.12
2023-02-06T01:33:17.193Z,86.70
2023-02-06T01:35:15.445Z,86.63
2023-02-06T01:37:13.652Z,86.33
2023-02-06T01:39:12.177Z,85.86
2023-02-06T01:41:12.103Z,86.40
2023-02-06T01:43:18.866Z,85.86
2023-02-06T01:45:49.691Z,84.96
2023-02-06T01:47:50.047Z,85.17
2023-02-06T01:49:52.237Z,85.56
2023-02-06T01:51:51.377Z,85.65
2023-02-06T01:53:55.603Z,85.27
2023-02-06T01:55:55.604Z,85.11
2023-02-06T01:57:52.851Z,85.15
2023-02-06T01:59:55.975Z,85.22
2023-02-06T02:01:54.225Z,85.49
2023-02-06T02:03:58.182Z,84.68
2023-02-06T02:06:01.376Z,83.85
2023-02-06T02:08:04.922Z,83.49
2023-02-06T02:10:07.101Z,82.46
2023-02-06T02:12:05.736Z,82.51
2023-02-06T02:14:07.478Z,82.58
2023-02-06T02:16:15.255Z,83.22
2023-02-06T02:18:32.704Z,84.22
2023-02-06T02:21:02.793Z,83.36
2023-02-06T02:23:12.927Z,83.62
2023-02-06T02:25:32.192Z,82.83
2023-02-06T02:27:51.766Z,83.32
2023-02-06T02:30:11.895Z,83.46
2023-02-06T02:32:39.098Z,84.65
2023-02-06T02:35:13.939Z,84.55
2023-02-06T02:37:19.953Z,84.42
2023-02-06T02:39:24.510Z,84.28
2023-02-06T02:41:29.064Z,83.21
2023-02-06T02:43:36.254Z,82.44
2023-02-06T02:45:41.953Z,82.52
2023-02-06T02:47:47.700Z,82.56
2023-02-06T02:49:47.709Z,82.24
2023-02-06T02:51:49.987Z,81.56
2023-02-06T02:53:48.452Z,82.03
2023-02-06T02:55:46.851Z,82.15
2023-02-06T02:57:50.644Z,82.06
2023-02-06T02:59:50.476Z,82.76
2023-02-06T03:01:53.658Z,84.06
2023-02-06T03:03:55.716Z,85.04
2023-02-06T03:06:14.025Z,85.28
2023-02-06T03:08:21.892Z,85.16
2023-02-06T03:10:29.076Z,85.04
2023-02-06T03:12:39.195Z,85.21
2023-02-06T03:14:45.359Z,84.97
2023-02-06T03:16:49.297Z,85.32
2023-02-06T03:18:54.242Z,84.56
2023-02-06T03:20:53.557Z,84.37
2023-02-06T03:22:54.003Z,83.63
2023-02-06T03:24:54.699Z,83.75
2023-02-06T03:26:59.609Z,84.39
2023-02-06T03:29:04.069Z,84.56
2023-02-06T03:31:04.955Z,83.16
2023-02-06T03:33:08.508Z,82.48
2023-02-06T03:35:11.128Z,82.80
2023-02-06T03:37:10.161Z,83.01
2023-02-06T03:39:08.717Z,83.22
2023-02-06T03:41:09.067Z,82.76
2023-02-06T03:43:08.684Z,82.94
2023-02-06T03:45:12.779Z,82.93
2023-02-06T03:47:13.038Z,82.94
2023-02-06T03:49:15.970Z,82.42
2023-02-06T03:51:19.191Z,82.98
2023-02-06T03:53:20.128Z,83.12
2023-02-06T03:55:21.289Z,82.67
2023-02-06T03:57:22.832Z,82.24
2023-02-06T03:59:21.492Z,81.55
2023-02-06T04:01:20.408Z,81.54
2023-02-06T04:03:20.066Z,81.58
2023-02-06T04:05:19.707Z,80.93
2023-02-06T04:07:24.094Z,81.07
2023-02-06T04:09:22.381Z,81.08
2023-02-06T04:11:20.672Z,80.82
2023-02-06T04:13:20.406Z,81.26
2023-02-06T04:15:18.948Z,82.25
2023-02-06T04:17:31.299Z,81.81
2023-02-06T04:19:35.431Z,81.37
2023-02-06T04:21:33.713Z,81.33
2023-02-06T04:23:31.789Z,81.76
2023-02-06T04:25:30.226Z,81.91
2023-02-06T04:27:28.390Z,82.61
2023-02-06T04:29:28.192Z,84.58
2023-02-06T04:31:26.364Z,80.85
2023-02-06T04:33:24.524Z,80.78
2023-02-06T04:35:22.909Z,80.90
2023-02-06T04:37:21.056Z,81.92
2023-02-06T04:39:19.350Z,81.84
2023-02-06T04:41:17.619Z,81.60
2023-02-06T04:43:15.850Z,81.91
2023-02-06T04:45:15.857Z,81.99
2023-02-06T04:47:14.120Z,82.24
2023-02-06T04:49:12.378Z,82.41
2023-02-06T04:51:10.746Z,82.30
2023-02-06T04:53:08.994Z,81.85
2023-02-06T04:55:07.637Z,81.93
2023-02-06T04:57:06.102Z,82.62
2023-02-06T04:59:04.174Z,82.48
2023-02-06T05:01:03.889Z,82.44
2023-02-06T05:03:02.229Z,82.27
2023-02-06T05:05:00.499Z,82.39
2023-02-06T05:06:58.653Z,82.59
2023-02-06T05:08:56.799Z,82.45
2023-02-06T05:10:55.302Z,82.70
2023-02-06T05:12:53.476Z,81.76
2023-02-06T05:14:51.713Z,82.08
2023-02-06T05:16:51.213Z,81.65
2023-02-06T05:18:53.556Z,81.57
2023-02-06T05:20:51.901Z,82.19
2023-02-06T05:22:50.223Z,82.16
2023-02-06T05:24:48.462Z,81.05
2023-02-06T05:26:46.715Z,81.27
2023-02-06T05:28:44.926Z,81.30
2023-02-06T05:30:43.442Z,81.83
2023-02-06T05:32:43.054Z,81.26
2023-02-06T05:34:41.245Z,80.84
2023-02-06T05:36:39.510Z,80.48
2023-02-06T05:38:37.740Z,80.50
2023-02-06T05:40:36.001Z,81.38
2023-02-06T05:42:34.214Z,80.54
2023-02-06T05:44:32.315Z,80.35
2023-02-06T05:46:37.365Z,80.45
2023-02-06T05:48:58.794Z,80.01
2023-02-06T05:50:57.665Z,79.10
2023-02-06T05:52:55.838Z,79.39
2023-02-06T05:54:54.028Z,79.56
2023-02-06T05:56:52.293Z,78.98
2023-02-06T05:58:50.494Z,78.69
2023-02-06T06:00:49.021Z,78.65
2023-02-06T06:02:47.930Z,78.59
2023-02-06T06:04:49.979Z,78.31
2023-02-06T06:06:48.303Z,78.06
2023-02-06T06:08:46.625Z,78.15
2023-02-06T06:10:44.828Z,78.04
2023-02-06T06:12:42.982Z,77.61
2023-02-06T06:14:41.074Z,77.21
2023-02-06T06:16:40.814Z,77.61
2023-02-06T06:18:55.799Z,77.37
2023-02-06T06:20:55.258Z,77.05
2023-02-06T06:22:53.531Z,76.87
2023-02-06T06:24:51.663Z,76.58
2023-02-06T06:26:50.018Z,75.91
2023-02-06T06:28:48.216Z,75.72
2023-02-06T06:30:46.562Z,75.96
2023-02-06T06:32:44.867Z,75.94
2023-02-06T06:34:43.105Z,75.82
2023-02-06T06:36:42.770Z,75.40
2023-02-06T06:38:41.174Z,75.28
2023-02-06T06:40:39.915Z,73.99
2023-02-06T06:42:38.360Z,73.56
2023-02-06T06:44:36.690Z,73.61
2023-02-06T06:46:34.732Z,72.45
2023-02-06T06:48:33.512Z,72.07
2023-02-06T06:50:31.799Z,71.94
2023-02-06T06:52:31.364Z,71.59
2023-02-06T06:54:29.630Z,70.12
2023-02-06T06:56:28.175Z,69.56
2023-02-06T06:58:26.316Z,69.97
2023-02-06T07:00:24.570Z,70.00
2023-02-06T07:02:22.726Z,68.66
2023-02-06T07:04:21.776Z,68.69
2023-02-06T07:06:20.010Z,69.12
2023-02-06T07:08:19.635Z,69.54
2023-02-06T07:10:18.286Z,69.96
2023-02-06T07:12:16.588Z,69.24
2023-02-06T07:14:14.865Z,69.23
2023-02-06T07:16:13.782Z,69.23
2023-02-06T07:18:14.182Z,68.07
2023-02-06T07:20:13.217Z,67.95
2023-02-06T07:22:11.438Z,68.38
2023-02-06T07:24:11.157Z,69.68
2023-02-06T07:26:09.292Z,69.61
2023-02-06T07:28:07.731Z,68.65
2023-02-06T07:30:06.712Z,68.12
2023-02-06T07:32:05.659Z,67.54
2023-02-06T07:34:03.764Z,67.15
2023-02-06T07:36:03.823Z,63.98
2023-02-06T07:38:02.409Z,64.04
2023-02-06T07:40:03.425Z,64.17
2023-02-06T07:42:01.688Z,64.20
2023-02-06T07:44:13.333Z,63.61
2023-02-06T07:46:11.669Z,62.88
2023-02-06T07:48:10.326Z,62.82
2023-02-06T07:50:08.846Z,63.38
2023-02-06T07:52:07.157Z,63.65
2023-02-06T07:54:05.660Z,64.37
2023-02-06T07:56:11.064Z,63.22
2023-02-06T07:58:12.076Z,64.02
2023-02-06T08:00:11.390Z,62.99
2023-02-06T08:02:12.865Z,63.21
2023-02-06T08:04:12.124Z,62.51
2023-02-06T08:06:11.836Z,63.12
2023-02-06T08:08:10.874Z,62.76
2023-02-06T08:10:09.903Z,62.88
2023-02-06T08:12:11.797Z,62.76
2023-02-06T08:14:11.143Z,62.02
2023-02-06T08:16:13.134Z,60.91
2023-02-06T08:18:11.332Z,61.85
2023-02-06T08:20:10.443Z,61.43
2023-02-06T08:22:08.739Z,60.07
2023-02-06T08:24:07.397Z,57.42
2023-02-06T08:26:07.771Z,55.94
2023-02-06T08:28:07.483Z,55.36
2023-02-06T08:30:06.629Z,52.57
2023-02-06T08:32:05.156Z,51.73
2023-02-06T08:34:03.698Z,49.36
2023-02-06T08:36:03.110Z,45.00
2023-02-06T08:38:02.218Z,43.18
2023-02-06T08:40:00.393Z,42.26
2023-02-06T08:41:58.628Z,42.95
2023-02-06T08:44:00.180Z,43.87
2023-02-06T08:45:59.582Z,43.10
2023-02-06T08:47:58.008Z,43.85
2023-02-06T08:49:56.325Z,45.40
2023-02-06T08:51:55.248Z,45.13
2023-02-06T08:53:53.851Z,45.04
2023-02-06T08:55:58.264Z,45.29
2023-02-06T08:57:56.477Z,47.00
2023-02-06T08:59:56.156Z,46.04
2023-02-06T09:01:54.298Z,44.08
2023-02-06T09:03:56.171Z,43.86
2023-02-06T09:06:09.428Z,44.31
2023-02-06T09:08:09.205Z,43.03
2023-02-06T09:10:16.223Z,44.80
2023-02-06T09:12:20.657Z,46.74
2023-02-06T09:14:20.357Z,45.22
2023-02-06T09:16:21.442Z,43.76
2023-02-06T09:18:20.101Z,42.41
2023-02-06T09:20:18.887Z,44.00
2023-02-06T09:22:17.279Z,43.53
2023-02-06T09:24:15.784Z,43.36
2023-02-06T09:26:15.581Z,43.88
2023-02-06T09:28:13.855Z,44.98
2023-02-06T09:30:14.353Z,42.97
2023-02-06T09:32:14.434Z,43.67
2023-02-06T09:34:13.749Z,40.81
2023-02-06T09:36:14.805Z,40.30
2023-02-06T09:38:13.228Z,39.73
2023-02-06T09:40:14.555Z,38.53
2023-02-06T09:42:18.606Z,38.86
2023-02-06T09:44:21.575Z,35.81
2023-02-06T09:46:23.612Z,37.12
2023-02-06T09:48:28.508Z,36.72
2023-02-06T09:50:31.503Z,35.00
2023-02-06T09:52:48.008Z,36.69
2023-02-06T09:54:59.229Z,35.37
2023-02-06T09:57:05.074Z,34.82
2023-02-06T09:59:11.121Z,31.89
2023-02-06T10:01:17.208Z,31.76
2023-02-06T10:03:40.155Z,32.02
2023-02-06T10:05:49.636Z,35.62
2023-02-06T10:08:03.202Z,36.48
2023-02-06T10:10:05.591Z,36.97
2023-02-06T10:12:08.716Z,36.86
2023-02-06T10:14:12.019Z,35.27
2023-02-06T10:16:21.463Z,35.97
2023-02-06T10:18:26.027Z,34.98
2023-02-06T10:20:35.804Z,34.70
2023-02-06T10:22:42.057Z,34.19
2023-02-06T10:24:45.191Z,35.44
2023-02-06T10:26:43.805Z,38.62
2023-02-06T10:28:42.217Z,42.94
2023-02-06T10:31:07.348Z,43.22
2023-02-06T10:33:25.393Z,38.88
2023-02-06T10:35:37.286Z,39.85
2023-02-06T10:38:08.578Z,38.68
2023-02-06T10:40:27.658Z,38.21
2023-02-06T10:42:39.475Z,37.35
2023-02-06T10:44:51.110Z,36.90
2023-02-06T10:46:55.125Z,34.87
2023-02-06T10:49:00.843Z,35.17
2023-02-06T10:51:05.040Z,36.18
2023-02-06T10:53:07.998Z,35.30
2023-02-06T10:55:17.322Z,32.70
2023-02-06T10:57:19.635Z,31.93
2023-02-06T10:59:23.712Z,30.76
2023-02-06T11:01:26.328Z,31.02
2023-02-06T11:03:30.481Z,30.88
2023-02-06T11:05:30.624Z,32.02
2023-02-06T11:07:32.861Z,31.12
2023-02-06T11:09:33.605Z,32.06
2023-02-06T11:11:34.056Z,35.91
2023-02-06T11:13:36.582Z,37.20
2023-02-06T11:15:39.310Z,36.77
2023-02-06T11:17:37.771Z,39.49
2023-02-06T11:19:40.533Z,41.67
2023-02-06T11:21:53.960Z,44.23
2023-02-06T11:24:09.769Z,45.17
2023-02-06T11:26:14.380Z,46.97
2023-02-06T11:28:18.714Z,47.30
2023-02-06T11:30:29.525Z,47.58
2023-02-06T11:32:36.129Z,46.86
2023-02-06T11:34:37.329Z,47.12
2023-02-06T11:36:39.361Z,47.29
2023-02-06T11:38:37.965Z,47.25
2023-02-06T11:40:36.841Z,47.96
2023-02-06T11:42:38.037Z,49.36
2023-02-06T11:44:39.521Z,50.43
2023-02-06T11:46:39.033Z,50.31
2023-02-06T11:48:42.111Z,50.37
2023-02-06T11:50:41.428Z,50.27
2023-02-06T11:52:40.191Z,52.00
2023-02-06T11:54:38.452Z,51.93
2023-02-06T11:56:36.783Z,52.29
2023-02-06T11:58:36.374Z,52.55
2023-02-06T12:00:36.098Z,54.73
2023-02-06T12:02:36.268Z,54.55
2023-02-06T12:04:37.900Z,55.01
2023-02-06T12:06:39.386Z,53.94
2023-02-06T12:08:48.608Z,54.79
2023-02-06T12:10:56.605Z,54.45
2023-02-06T12:13:07.641Z,55.79
2023-02-06T12:15:36.157Z,55.42
2023-02-06T12:17:35.283Z,54.88
2023-02-06T12:19:44.660Z,55.29
2023-02-06T12:21:55.097Z,55.11
2023-02-06T12:23:57.109Z,55.60
2023-02-06T12:26:00.947Z,56.22
2023-02-06T12:28:09.768Z,56.64
2023-02-06T12:30:27.615Z,56.33
2023-02-06T12:32:33.211Z,56.04
2023-02-06T12:34:44.252Z,55.21
2023-02-06T12:36:53.659Z,55.51
2023-02-06T12:38:57.153Z,54.33
2023-02-06T12:41:15.281Z,54.30
2023-02-06T12:43:15.757Z,54.48
2023-02-06T12:45:36.339Z,55.28
2023-02-06T12:47:42.122Z,54.74
2023-02-06T12:49:46.652Z,55.05
2023-02-06T12:51:50.913Z,55.38
2023-02-06T12:53:52.908Z,55.85
2023-02-06T12:55:57.733Z,54.55
2023-02-06T12:57:58.528Z,54.58
2023-02-06T13:00:35.593Z,55.77
2023-02-06T13:02:57.861Z,55.32
2023-02-06T13:04:56.995Z,55.28
2023-02-06T13:06:59.924Z,53.00
2023-02-06T13:09:00.827Z,54.98
2023-02-06T13:11:04.426Z,55.36
2023-02-06T13:13:03.028Z,55.34
2023-02-06T13:15:05.726Z,55.36
2023-02-06T13:17:11.896Z,57.05
2023-02-06T13:19:26.087Z,56.43
2023-02-06T13:21:28.709Z,56.45
2023-02-06T13:23:27.050Z,55.76
2023-02-06T13:25:51.950Z,56.73
2023-02-06T13:27:50.392Z,56.76
2023-02-06T13:29:49.515Z,56.64
2023-02-06T13:31:47.766Z,56.61
2023-02-06T13:33:52.264Z,56.83
2023-02-06T13:35:58.389Z,56.99
2023-02-06T13:38:28.114Z,56.43
2023-02-06T13:40:32.315Z,57.04
2023-02-06T13:42:44.978Z,57.24
2023-02-06T13:44:43.768Z,57.96
2023-02-06T13:47:18.825Z,58.00
2023-02-06T13:49:42.186Z,58.01
2023-02-06T13:51:53.052Z,57.95
2023-02-06T13:54:20.089Z,58.14
2023-02-06T13:56:45.922Z,59.01
2023-02-06T13:58:49.286Z,59.72
2023-02-06T14:00:50.775Z,60.01
2023-02-06T14:02:52.296Z,59.68
2023-02-06T14:04:52.693Z,60.23
2023-02-06T14:07:07.637Z,60.38
2023-02-06T14:09:12.245Z,60.00
2023-02-06T14:11:24.109Z,59.87
2023-02-06T14:13:35.780Z,60.01
2023-02-06T14:15:40.929Z,59.22
2023-02-06T14:17:50.153Z,58.61
2023-02-06T14:19:56.121Z,58.87
2023-02-06T14:22:04.397Z,59.40
2023-02-06T14:24:28.726Z,60.26
2023-02-06T14:26:37.908Z,60.06
2023-02-06T14:28:50.958Z,60.52
2023-02-06T14:30:59.618Z,60.33
2023-02-06T14:33:09.137Z,60.60
2023-02-06T14:35:22.107Z,60.18
2023-02-06T14:40:22.924Z,61.13
2023-02-06T14:42:27.174Z,60.22
2023-02-06T14:44:30.030Z,61.02
2023-02-06T14:46:30.361Z,61.76
2023-02-06T14:48:33.100Z,62.01
2023-02-06T14:50:36.096Z,61.96
2023-02-06T14:52:35.747Z,62.74
2023-02-06T14:54:35.591Z,62.59
2023-02-06T14:56:36.587Z,62.76
2023-02-06T14:58:35.170Z,62.75
2023-02-06T15:00:34.206Z,62.50
2023-02-06T15:02:33.989Z,63.31
2023-02-06T15:04:32.122Z,63.78
2023-02-06T15:06:34.934Z,63.75
2023-02-06T15:08:34.028Z,63.47
2023-02-06T15:10:36.673Z,64.00
2023-02-06T15:12:35.965Z,63.83
2023-02-06T15:14:36.105Z,64.30
2023-02-06T15:16:46.898Z,63.93
2023-02-06T15:18:45.588Z,64.46
2023-02-06T15:20:46.434Z,64.82
2023-02-06T15:22:46.165Z,65.01
2023-02-06T15:24:57.139Z,65.45
2023-02-06T15:27:04.001Z,65.55
2023-02-06T15:29:04.198Z,66.56
2023-02-06T15:31:03.028Z,66.83
2023-02-06T15:33:02.106Z,66.77
2023-02-06T15:35:01.048Z,67.31
2023-02-06T15:36:59.349Z,67.75
2023-02-06T15:38:59.670Z,68.23
2023-02-06T15:41:02.226Z,68.20
2023-02-06T15:43:01.462Z,68.73
2023-02-06T15:45:00.186Z,68.94
2023-02-06T15:46:59.303Z,69.33
2023-02-06T15:48:58.504Z,69.59
2023-02-06T15:50:59.519Z,69.79
2023-02-06T15:52:57.693Z,70.01
2023-02-06T15:55:00.753Z,69.92
2023-02-06T15:57:04.883Z,70.34
2023-02-06T15:59:06.568Z,70.73
2023-02-06T16:01:06.884Z,70.68
2023-02-06T16:03:08.354Z,70.95
2023-02-06T16:05:12.331Z,70.70
2023-02-06T16:07:16.953Z,70.84
2023-02-06T16:09:22.586Z,70.52
2023-02-06T16:11:40.134Z,70.31
2023-02-06T16:13:39.088Z,71.03
2023-02-06T16:15:39.321Z,70.98
2023-02-06T16:17:41.308Z,70.55
2023-02-06T16:19:46.706Z,70.91
2023-02-06T16:21:44.822Z,71.00
2023-02-06T16:23:47.543Z,69.44
2023-02-06T16:25:47.149Z,68.97
2023-02-06T16:27:47.373Z,69.65
2023-02-06T16:29:50.303Z,69.10
2023-02-06T16:31:58.243Z,68.92
2023-02-06T16:34:03.722Z,69.35
2023-02-06T16:36:02.123Z,69.47
2023-02-06T16:38:00.322Z,69.47
2023-02-06T16:39:58.496Z,69.57
2023-02-06T16:41:56.724Z,69.19
2023-02-06T16:43:58.855Z,69.41
2023-02-06T16:45:59.584Z,68.78
2023-02-06T16:47:58.018Z,68.32
2023-02-06T16:49:56.635Z,67.08
2023-02-06T16:51:55.395Z,67.14
2023-02-06T16:53:53.932Z,67.25
2023-02-06T16:55:53.376Z,67.74
2023-02-06T16:57:54.519Z,66.46
2023-02-06T16:59:54.319Z,65.14
2023-02-06T17:01:52.423Z,64.89
2023-02-06T17:03:50.954Z,66.03
2023-02-06T17:05:53.081Z,65.34
2023-02-06T17:07:55.849Z,65.26
2023-02-06T17:09:57.383Z,64.96
2023-02-06T17:11:55.594Z,65.09
2023-02-06T17:13:54.438Z,64.46
2023-02-06T17:15:54.654Z,64.89
2023-02-06T17:17:54.965Z,63.91
2023-02-06T17:19:53.439Z,64.39
2023-02-06T17:21:51.899Z,63.08
2023-02-06T17:23:51.616Z,63.86
2023-02-06T17:25:51.201Z,63.65
2023-02-06T17:27:50.002Z,63.07
2023-02-06T17:29:48.918Z,63.34
2023-02-06T17:31:49.092Z,63.46
2023-02-06T17:33:47.585Z,63.70
2023-02-06T17:35:48.471Z,63.59
2023-02-06T17:37:47.166Z,62.58
2023-02-06T17:39:45.776Z,63.26
2023-02-06T17:41:44.153Z,63.01
2023-02-06T17:43:42.658Z,62.64
2023-02-06T17:45:42.008Z,63.01
2023-02-06T17:47:42.154Z,62.94
2023-02-06T17:49:40.745Z,63.09
2023-02-06T17:51:41.624Z,63.06
2023-02-06T17:53:40.316Z,63.12
2023-02-06T17:55:38.777Z,63.20
2023-02-06T17:57:38.113Z,63.52
2023-02-06T17:59:36.505Z,63.40
2023-02-06T18:01:35.174Z,64.36
2023-02-06T18:03:35.852Z,63.55
2023-02-06T18:05:34.843Z,63.94
2023-02-06T18:07:33.519Z,64.15
2023-02-06T18:09:31.888Z,64.82
2023-02-06T18:11:30.478Z,64.72
2023-02-06T18:13:29.270Z,64.17
2023-02-06T18:15:29.360Z,64.53
2023-02-06T18:17:29.381Z,64.73
2023-02-06T18:19:41.479Z,65.18
2023-02-06T18:21:40.679Z,64.86
2023-02-06T18:23:42.588Z,65.10
2023-02-06T18:25:43.447Z,65.07
2023-02-06T18:27:42.893Z,64.30
2023-02-06T18:29:49.682Z,64.81
2023-02-06T18:31:49.912Z,65.70
2023-02-06T18:33:48.304Z,65.09
2023-02-06T18:35:50.824Z,64.45
2023-02-06T18:37:50.161Z,65.05
2023-02-06T18:39:48.530Z,64.08
2023-02-06T18:42:03.963Z,64.42
2023-02-06T18:44:03.115Z,65.01
2023-02-06T18:46:07.754Z,65.11
2023-02-06T18:48:08.541Z,65.38
2023-02-06T18:50:07.450Z,64.56
2023-02-06T18:52:07.883Z,64.36
2023-02-06T18:54:07.948Z,64.42
2023-02-06T18:56:06.498Z,64.22
2023-02-06T18:58:06.039Z,64.11
2023-02-06T19:00:05.817Z,63.79
2023-02-06T19:02:04.537Z,63.59
2023-02-06T19:04:02.832Z,63.34
2023-02-06T19:06:01.097Z,63.30
2023-02-06T19:08:00.814Z,63.56
2023-02-06T19:10:00.404Z,63.63
2023-02-06T19:11:58.723Z,63.24
2023-02-06T19:13:57.094Z,62.87
2023-02-06T19:16:05.960Z,63.49
2023-02-06T19:18:05.613Z,63.54
2023-02-06T19:20:06.230Z,63.94
2023-02-06T19:22:04.682Z,63.80
2023-02-06T19:24:05.948Z,63.73
2023-02-06T19:26:07.079Z,63.60
2023-02-06T19:28:05.536Z,63.64
2023-02-06T19:30:04.856Z,63.24
2023-02-06T19:32:03.689Z,63.25
2023-02-06T19:34:03.020Z,62.34
2023-02-06T19:36:06.126Z,62.49
2023-02-06T19:38:04.437Z,62.89
2023-02-06T19:40:04.077Z,62.62
2023-02-06T19:42:04.577Z,62.59
2023-02-06T19:44:06.910Z,63.13
2023-02-06T19:46:05.948Z,63.98
2023-02-06T19:48:06.538Z,63.99
2023-02-06T19:50:05.947Z,64.25
2023-02-06T19:52:04.474Z,64.25
2023-02-06T19:54:02.839Z,64.46
2023-02-06T19:56:02.853Z,64.48
2023-02-06T19:58:01.145Z,64.33
2023-02-06T20:00:00.801Z,64.27
2023-02-06T20:02:01.496Z,64.86
2023-02-06T20:04:01.631Z,64.48
2023-02-06T20:06:02.425Z,64.00
2023-02-06T20:08:01.242Z,63.85
2023-02-06T20:09:59.442Z,64.05
2023-02-06T20:11:59.191Z,63.43
2023-02-06T20:13:58.462Z,63.88
2023-02-06T20:15:57.596Z,64.06
2023-02-06T20:17:56.071Z,64.37
2023-02-06T20:19:54.448Z,64.25
2023-02-06T20:21:57.881Z,64.87
2023-02-06T20:23:57.589Z,64.46
2023-02-06T20:25:56.193Z,64.33
2023-02-06T20:27:55.849Z,64.81
2023-02-06T20:29:54.464Z,65.22
2023-02-06T20:31:54.186Z,65.45
2023-02-06T20:33:52.852Z,65.99
2023-02-06T20:35:51.024Z,66.22
2023-02-06T20:37:49.293Z,66.18
2023-02-06T20:39:47.535Z,66.76
2023-02-06T20:41:46.208Z,67.06
2023-02-06T20:43:48.752Z,67.64
2023-02-06T20:45:47.180Z,67.60
2023-02-06T20:47:45.587Z,67.71
2023-02-06T20:49:43.957Z,68.10
2023-02-06T20:51:42.451Z,68.20
2023-02-06T20:53:41.041Z,68.51
2023-02-06T20:55:41.795Z,68.74
2023-02-06T20:57:39.951Z,69.10
2023-02-06T20:59:39.654Z,69.13
2023-02-06T21:01:37.896Z,69.47
2023-02-06T21:03:39.002Z,69.76
2023-02-06T21:05:37.344Z,69.73
2023-02-06T21:07:35.838Z,70.16
2023-02-06T21:09:34.400Z,70.33
2023-02-06T21:11:35.248Z,70.06
2023-02-06T21:13:35.041Z,70.66
2023-02-06T21:15:45.956Z,70.95
2023-02-06T21:17:44.566Z,71.01
2023-02-06T21:19:42.792Z,71.02
2023-02-06T21:21:45.677Z,71.81
2023-02-06T21:23:44.908Z,71.57
2023-02-06T21:25:43.183Z,72.44
2023-02-06T21:27:41.989Z,72.35
2023-02-06T21:29:40.507Z,72.99
2023-02-06T21:31:40.435Z,73.01
2023-02-06T21:33:39.337Z,73.01
2023-02-06T21:35:39.675Z,72.76
2023-02-06T21:37:38.041Z,72.43
2023-02-06T21:39:38.895Z,72.85
2023-02-06T21:41:37.982Z,73.54
2023-02-06T21:43:36.777Z,73.94
2023-02-06T21:45:35.129Z,74.06
2023-02-06T21:47:35.895Z,74.14
2023-02-06T21:49:34.223Z,74.54
2023-02-06T21:51:32.538Z,74.68
2023-02-06T21:53:31.000Z,74.44
2023-02-06T21:55:33.654Z,74.74
2023-02-06T21:57:32.631Z,75.07
2023-02-06T21:59:34.046Z,75.47
2023-02-06T22:01:34.381Z,75.92
2023-02-06T22:03:37.447Z,75.84
2023-02-06T22:05:36.203Z,75.67
2023-02-06T22:07:36.256Z,75.69
2023-02-06T22:09:34.533Z,75.42
2023-02-06T22:11:33.458Z,75.09
2023-02-06T22:13:32.213Z,75.63
2023-02-06T22:15:30.508Z,74.94
2023-02-06T22:17:30.370Z,75.09
2023-02-06T22:19:30.352Z,75.52
2023-02-06T22:21:30.727Z,75.30
2023-02-06T22:23:28.926Z,75.01
2023-02-06T22:25:28.475Z,75.09
2023-02-06T22:27:26.845Z,75.10
2023-02-06T22:29:25.328Z,74.94
2023-02-06T22:31:25.410Z,74.63
2023-02-06T22:33:24.277Z,74.58
2023-02-06T22:35:24.171Z,74.07
2023-02-06T22:37:22.753Z,73.77
2023-02-06T22:39:21.549Z,73.90
2023-02-06T22:41:20.106Z,74.03
2023-02-06T22:43:18.332Z,73.85
2023-02-06T22:45:16.581Z,73.89
2023-02-06T22:47:14.854Z,73.54
2023-02-06T22:49:13.610Z,74.02
2023-02-06T22:51:13.760Z,73.92
2023-02-06T22:53:30.219Z,74.04
2023-02-06T22:55:49.016Z,74.39
2023-02-06T22:57:47.249Z,74.42
2023-02-06T22:59:45.963Z,74.69
2023-02-06T23:01:49.963Z,74.50
2023-02-06T23:03:57.766Z,74.98
2023-02-06T23:05:57.151Z,75.47
2023-02-06T23:07:56.948Z,75.94
2023-02-06T23:09:55.585Z,75.70
2023-02-06T23:12:00.316Z,75.79
2023-02-06T23:14:00.812Z,75.87
2023-02-06T23:15:59.618Z,76.00
2023-02-06T23:17:57.814Z,76.09
2023-02-06T23:19:56.126Z,75.42
2023-02-06T23:21:54.629Z,74.68
2023-02-06T23:23:56.198Z,75.25
2023-02-06T23:25:54.979Z,75.42
2023-02-06T23:27:53.170Z,75.12
2023-02-06T23:29:51.590Z,75.06
2023-02-06T23:31:50.886Z,75.00
2023-02-06T23:33:49.193Z,74.78
2023-02-06T23:35:47.885Z,74.73
2023-02-06T23:37:46.168Z,75.32
2023-02-06T23:39:45.986Z,75.39
2023-02-06T23:41:44.396Z,76.10
2023-02-06T23:43:42.692Z,76.32
2023-02-06T23:45:41.698Z,76.29
2023-02-06T23:47:40.201Z,76.14
2023-02-06T23:49:38.478Z,76.28
2023-02-06T23:51:38.110Z,76.21
2023-02-06T23:53:36.557Z,76.31
2023-02-06T23:55:36.537Z,76.55
2023-02-06T23:57:36.052Z,76.70
2023-02-06T23:59:34.199Z,76.74
